Latest Weather Observations for Moranbah Airport

IDQ60801

Issued at 8:02 am EST Wednesday 23 October 2019 (issued every 10 minutes, with the page automatically refreshed every 10 minutes)

About weather observations | Map of weather stations | Latest weather observations for QLD | Other Formats
Station Details ID: 034035 Name: MORANBAH AIRPORT Lat: -22.06 Lon: 148.08 Height: 232.2 m
Data from the previous 72 hours. | See also: Recent months at Moranbah Airport
Date/Time
EST
Temp
°C
App
Temp
°C
Dew
Point
°C
Rel
Hum
%
Delta-T
°C
Wind Press
QNH
hPa
Press
MSL
hPa
Rain since
9am
mm
Dir  Spd
km/h
Gust
km/h
Spd
kts
Gust
kts
23/08:00am 21.9 18.3 13.0 57 5.1 E 24 35 13 19 1022.4 1021.2 0.0
23/07:30am 20.8 17.6 13.0 61 4.5 ESE 22 33 12 18 1022.1 1020.9 0.0
23/07:00am 20.1 17.9 13.3 65 3.9 ESE 17 22 9 12 1021.9 1020.7 0.0
23/06:30am 18.3 16.4 13.0 71 3.0 SE 15 20 8 11 1021.5 1020.3 0.0
23/06:00am 16.6 15.4 12.9 79 2.1 SE 11 15 6 8 1021.0 1019.9 0.0
23/05:30am 15.7 14.4 12.6 82 1.7 SE 11 13 6 7 1020.8 1019.7 0.0
23/05:00am 15.7 14.4 12.5 81 1.8 SE 11 15 6 8 1020.6 1019.5 0.0
23/04:30am 16.6 15.0 12.9 79 2.1 SE 13 17 7 9 1020.3 1019.2 0.0
23/04:00am 16.8 14.5 13.1 79 2.1 SE 17 19 9 10 1020.1 1019.0 0.0
23/03:30am 16.9 15.1 13.2 79 2.1 SE 15 17 8 9 1020.1 1019.0 0.0
23/03:00am 17.0 16.0 13.3 79 2.1 SE 11 13 6 7 1020.2 1019.1 0.0
23/02:30am 17.3 15.5 13.2 77 2.3 SE 15 19 8 10 1020.4 1019.3 0.0
23/02:00am 17.5 15.2 13.0 75 2.5 SE 17 19 9 10 1020.6 1019.5 0.0
23/01:30am 17.4 15.4 12.7 74 2.6 SE 15 17 8 9 1020.9 1019.8 0.0
23/01:00am 17.6 15.8 12.1 70 3.1 SE 13 15 7 8 1021.1 1020.0 0.0
23/12:30am 17.9 16.0 11.9 68 3.3 SE 13 13 7 7 1021.5 1020.3 0.0
23/12:00am 19.0 17.3 12.5 66 3.7 ESE 13 15 7 8 1021.6 1020.4 0.0
 
Date/Time
EST
Temp
°C
App
Temp
°C
Dew
Point
°C
Rel
Hum
%
Delta-T
°C
Wind Press
QNH
hPa
Press
MSL
hPa
Rain since
9am
mm
Dir  Spd
km/h
Gust
km/h
Spd
kts
Gust
kts
22/11:30pm 19.7 17.7 12.7 64 4.0 E 15 20 8 11 1021.7 1020.5 0.0
22/11:00pm 19.9 18.3 12.7 63 4.1 E 13 19 7 10 1021.8 1020.6 0.0
22/10:30pm 20.5 17.7 12.7 61 4.5 E 19 26 10 14 1021.8 1020.6 0.0
22/10:00pm 20.7 18.7 12.7 60 4.6 E 15 20 8 11 1021.7 1020.5 0.0
22/09:30pm 21.3 19.4 13.0 59 4.8 ENE 15 22 8 12 1021.4 1020.2 0.0
22/09:00pm 21.7 19.3 12.8 57 5.1 ENE 17 24 9 13 1021.1 1020.0 0.0
22/08:30pm 22.3 18.9 12.5 53 5.6 ENE 22 37 12 20 1020.8 1019.7 0.0
22/08:00pm 22.9 19.5 12.5 52 6.0 ENE 22 33 12 18 1020.3 1019.2 0.0
22/07:30pm 23.7 18.4 12.4 49 6.5 NE 32 43 17 23 1019.9 1018.8 0.0
22/07:00pm 25.2 19.6 11.4 42 7.9 ENE 32 43 17 23 1019.2 1018.0 0.0
22/06:30pm 26.7 20.8 10.4 36 9.2 ENE 32 44 17 24 1018.5 1017.3 0.0
22/06:23pm 26.8 22.1 10.5 36 9.2 E 26 44 14 24 1018.3 1017.1 0.0
22/06:00pm 28.2 22.8 4.5 22 12.2 ESE 22 28 12 15 1017.9 1016.7 0.0
22/05:30pm 29.3 23.6 4.7 21 12.8 SE 24 35 13 19 1017.5 1016.3 0.0
22/05:00pm 29.4 24.6 4.8 21 12.8 ESE 19 30 10 16 1017.2 1016.0 0.0
22/04:30pm 30.1 24.3 6.1 22 12.9 E 26 39 14 21 1016.9 1015.7 0.0
22/04:00pm 30.4 25.1 4.9 20 13.4 ESE 22 32 12 17 1016.8 1015.6 0.0
22/03:30pm 30.6 24.7 5.8 21 13.3 ESE 26 41 14 22 1016.9 1015.7 0.0
22/03:00pm 30.7 26.1 6.6 22 13.0 ESE 20 41 11 22 1017.2 1016.0 0.0
22/02:30pm 30.3 24.5 6.2 22 12.9 E 26 39 14 21 1017.5 1016.3 0.0
22/02:00pm 30.3 24.5 6.2 22 12.9 ESE 26 39 14 21 1017.7 1016.5 0.0
22/01:30pm 29.6 24.2 6.3 23 12.5 ESE 24 41 13 22 1018.2 1017.0 0.0
22/01:00pm 29.0 22.6 5.1 22 12.5 ESE 28 33 15 18 1018.8 1017.6 0.0
22/12:30pm 30.2 24.8 8.0 25 12.3 ESE 26 43 14 23 1019.3 1018.1 0.0
22/12:00pm 30.2 25.3 8.6 26 12.0 ESE 24 41 13 22 1019.9 1018.8 0.0
22/11:40am 28.8 23.8 9.5 30 10.9 ENE 26 46 14 25 1020.1 1019.0 0.0
22/11:30am 28.7 24.4 10.8 33 10.3 ESE 24 35 13 19 1020.5 1019.4 0.0
22/11:00am 27.6 23.7 12.0 38 9.1 ESE 24 33 13 18 1021.0 1019.9 0.0
22/10:30am 28.0 25.4 13.9 42 8.5 E 20 37 11 20 1021.6 1020.4 0.0
22/10:00am 25.2 21.6 13.1 47 7.1 ESE 24 35 13 19 1022.1 1020.9 0.0
22/09:30am 24.1 21.0 13.3 51 6.3 E 22 33 12 18 1022.4 1021.2 0.0
22/09:00am 24.1 21.6 14.2 54 5.9 E 20 32 11 17 1022.6 1021.4 0.0
22/08:30am 23.3 20.5 15.4 61 4.8 E 24 33 13 18 1022.6 1021.4 0.0
22/08:00am 23.0 20.2 15.3 62 4.6 ESE 24 32 13 17 1022.4 1021.2 0.0
22/07:30am 21.6 18.4 15.2 67 3.8 ESE 26 35 14 19 1022.2 1021.0 0.0
22/07:00am 20.1 17.1 14.9 72 3.1 ESE 24 32 13 17 1021.9 1020.7 0.0
22/06:30am 19.6 17.4 15.0 75 2.7 ESE 20 28 11 15 1021.7 1020.5 0.0
22/06:00am 18.5 16.3 14.8 79 2.2 ESE 20 26 11 14 1021.4 1020.2 0.0
22/05:30am 17.8 16.0 14.5 81 1.9 SE 17 22 9 12 1021.0 1019.9 0.0
22/05:00am 17.9 16.1 14.4 80 2.0 SE 17 22 9 12 1020.7 1019.6 0.0
22/04:30am 17.9 16.9 14.6 81 1.9 ESE 13 17 7 9 1020.4 1019.3 0.0
22/04:00am 17.8 16.6 14.1 79 2.1 ESE 13 17 7 9 1020.2 1019.1 0.0
22/03:30am 18.2 17.1 14.3 78 2.3 SE 13 17 7 9 1020.2 1019.1 0.0
22/03:00am 18.5 16.7 14.4 77 2.4 SE 17 20 9 11 1020.1 1019.0 0.0
22/02:30am 18.3 17.2 14.4 78 2.3 SE 13 17 7 9 1020.1 1019.0 0.0
22/02:00am 18.2 17.0 13.9 76 2.5 SE 13 15 7 8 1020.3 1019.2 0.0
22/01:30am 18.9 18.4 13.7 72 3.0 ESE 9 13 5 7 1020.5 1019.4 0.0
22/01:00am 20.2 18.8 14.6 70 3.3 E 15 20 8 11 1020.5 1019.4 0.0
22/12:30am 20.6 19.3 14.7 69 3.5 E 15 20 8 11 1020.8 1019.7 0.0
22/12:00am 20.8 18.7 14.7 68 3.6 E 19 24 10 13 1021.1 1020.0 0.0
 
Date/Time
EST
Temp
°C
App
Temp
°C
Dew
Point
°C
Rel
Hum
%
Delta-T
°C
Wind Press
QNH
hPa
Press
MSL
hPa
Rain since
9am
mm
Dir  Spd
km/h
Gust
km/h
Spd
kts
Gust
kts
21/11:30pm 21.0 19.6 14.6 67 3.8 E 15 20 8 11 1021.4 1020.2 0.0
21/11:00pm 21.1 19.7 14.5 66 3.9 E 15 20 8 11 1021.5 1020.3 0.0
21/10:30pm 21.6 19.3 14.7 65 4.1 E 20 26 11 14 1021.4 1020.2 0.0
21/10:00pm 21.9 19.1 14.3 62 4.5 ENE 22 30 12 16 1021.1 1020.0 0.0
21/09:30pm 22.3 18.4 13.4 57 5.2 E 26 35 14 19 1020.9 1019.8 0.0
21/09:00pm 22.9 19.7 11.9 50 6.3 ENE 20 33 11 18 1020.5 1019.4 0.0
21/08:30pm 23.4 20.0 11.1 46 6.9 ENE 20 28 11 15 1020.3 1019.2 0.0
21/08:00pm 24.1 18.2 10.4 42 7.6 ENE 32 44 17 24 1019.8 1018.7 0.0
21/07:30pm 24.9 20.5 8.8 36 8.8 ENE 22 32 12 17 1019.3 1018.1 0.0
21/07:00pm 25.7 20.3 7.8 32 9.6 ENE 26 32 14 17 1018.8 1017.6 0.0
21/06:30pm 26.4 20.2 9.3 34 9.5 ENE 32 43 17 23 1018.3 1017.1 0.0
21/06:00pm 27.4 21.0 9.3 32 10.1 ENE 33 44 18 24 1017.5 1016.3 0.0
21/05:30pm 29.1 23.6 5.9 23 12.3 E 24 33 13 18 1016.8 1015.6 0.0
21/05:00pm 29.9 24.3 5.2 21 13.0 E 24 33 13 18 1016.4 1015.3 0.0
21/04:30pm 31.1 26.4 3.2 17 14.3 E 17 28 9 15 1016.1 1015.0 0.0
21/04:00pm 32.3 26.6 5.0 18 14.5 E 24 35 13 19 1016.0 1014.9 0.0
21/03:30pm 30.8 25.0 4.5 19 13.8 ESE 24 37 13 20 1016.0 1014.9 0.0
21/03:04pm 33.7 29.2 6.1 18 15.1 SE 19 39 10 21 1015.9 1014.8 0.0
21/03:00pm 31.6 26.9 5.2 19 14.0 SE 19 33 10 18 1016.0 1014.9 0.0
21/02:30pm 30.9 24.8 3.0 17 14.3 E 24 43 13 23 1016.3 1015.2 0.0
21/02:00pm 30.4 24.2 4.2 19 13.6 E 26 43 14 23 1016.8 1015.6 0.0
21/01:30pm 30.9 24.8 4.6 19 13.8 ESE 26 35 14 19 1017.2 1016.0 0.0
21/01:00pm 30.7 25.2 5.9 21 13.3 ESE 24 35 13 19 1017.6 1016.4 0.0
21/12:39pm 30.6 25.5 7.7 24 12.6 E 24 48 13 26 1018.0 1016.8 0.0
21/12:30pm 30.3 25.1 8.7 26 12.1 E 26 39 14 21 1018.2 1017.0 0.0
21/12:00pm 30.6 25.5 10.5 29 11.6 ESE 28 41 15 22 1018.7 1017.5 0.0
21/11:30am 29.3 26.3 12.7 36 9.9 E 20 32 11 17 1019.3 1018.1 0.0
21/11:00am 29.3 25.5 13.5 38 9.5 ESE 26 43 14 23 1019.7 1018.6 0.0
21/10:30am 28.1 24.5 14.3 42 8.4 E 26 33 14 18 1020.2 1019.1 0.0
21/10:00am 26.3 22.8 14.4 48 7.2 E 26 33 14 18 1020.5 1019.4 0.0
21/09:30am 26.7 24.4 15.7 51 6.8 ESE 22 33 12 18 1020.7 1019.6 0.0
21/09:00am 24.1 21.3 15.3 58 5.3 ESE 24 39 13 21 1020.7 1019.6 0.0
21/08:30am 24.3 21.9 16.3 61 4.9 E 24 35 13 19 1020.8 1019.7 0.0
21/08:00am 23.1 20.3 16.4 66 4.1 ESE 26 33 14 18 1020.7 1019.6 0.0
21/07:30am 23.0 20.6 16.5 67 4.0 SE 24 32 13 17 1020.4 1019.3 0.0
21/07:00am 21.9 19.8 16.2 70 3.5 ESE 22 30 12 16 1020.0 1018.9 0.0
21/06:30am 20.5 18.7 15.9 75 2.8 SE 20 26 11 14 1020.0 1018.9 0.0
21/06:00am 20.3 18.8 16.3 78 2.4 SE 19 24 10 13 1019.6 1018.5 0.0
21/05:30am 20.2 18.9 16.8 81 2.1 SE 19 26 10 14 1019.3 1018.1 0.0
21/05:00am 20.2 18.8 16.6 80 2.2 SE 19 24 10 13 1018.7 1017.5 0.0
21/04:30am 20.2 18.5 16.2 78 2.4 SE 20 28 11 15 1018.4 1017.2 0.0
21/04:00am 19.0 17.8 15.1 78 2.3 SE 15 19 8 10 1018.0 1016.8 0.0
21/03:30am 18.2 16.8 14.5 79 2.2 SE 15 17 8 9 1017.5 1016.3 0.0
21/03:00am 17.7 16.5 14.0 79 2.1 SE 13 15 7 8 1017.3 1016.1 0.0
21/02:30am 18.6 17.2 14.5 77 2.4 SE 15 17 8 9 1017.1 1015.9 0.0
21/02:00am 18.9 18.0 14.8 77 2.4 SE 13 15 7 8 1016.9 1015.7 0.0
21/01:30am 19.5 19.0 13.9 70 3.3 ESE 9 9 5 5 1017.1 1015.9 0.0
21/01:00am 20.5 19.8 14.4 68 3.6 ESE 11 13 6 7 1017.3 1016.1 0.0
21/12:30am 20.0 18.7 13.7 67 3.7 ESE 13 13 7 7 1017.5 1016.3 0.0
21/12:00am 20.6 19.7 13.6 64 4.1 ESE 11 13 6 7 1017.8 1016.6 0.0
 
Date/Time
EST
Temp
°C
App
Temp
°C
Dew
Point
°C
Rel
Hum
%
Delta-T
°C
Wind Press
QNH
hPa
Press
MSL
hPa
Rain since
9am
mm
Dir  Spd
km/h
Gust
km/h
Spd
kts
Gust
kts
20/11:30pm 21.7 20.5 14.1 62 4.5 E 13 15 7 8 1017.9 1016.7 0.0
20/11:00pm 22.3 21.4 13.6 58 5.1 ESE 11 13 6 7 1018.1 1016.9 0.0
20/10:30pm 23.4 22.7 14.4 57 5.4 E 11 17 6 9 1018.1 1016.9 0.0
20/10:00pm 24.0 23.6 15.2 58 5.3 ESE 11 17 6 9 1018.1 1016.9 0.0
20/09:30pm 24.7 24.1 15.6 57 5.6 E 13 22 7 12 1017.6 1016.4 0.0
20/09:00pm 25.3 24.0 16.7 59 5.3 ENE 19 24 10 13 1017.1 1015.9 0.0
20/08:30pm 26.0 24.1 16.8 57 5.8 ENE 22 32 12 17 1016.4 1015.3 0.0
20/08:00pm 26.7 25.7 16.6 54 6.3 ENE 17 24 9 13 1016.2 1015.1 0.0
20/07:30pm 27.3 25.6 16.3 51 6.9 ENE 20 26 11 14 1015.7 1014.5 0.0
20/07:00pm 27.9 22.5 -4.1 12 14.1 ESE 15 20 8 11 1015.0 1013.8 0.0
20/06:30pm 29.1 23.3 -4.3 11 14.9 SE 17 20 9 11 1014.4 1013.2 0.0
20/06:00pm 30.8 25.0 -4.3 10 15.8 SE 17 22 9 12 1014.1 1012.9 0.0
20/05:30pm 32.1 26.5 -3.3 10 16.4 SE 17 24 9 13 1013.7 1012.5 0.0
20/05:00pm 32.9 27.3 -2.7 10 16.8 SE 17 24 9 13 1013.5 1012.3 0.0
20/04:30pm 33.6 27.1 -2.2 10 17.1 ESE 22 32 12 17 1013.3 1012.1 0.0
20/04:00pm 33.2 27.6 -2.5 10 16.9 SSE 17 28 9 15 1013.2 1012.0 0.0
20/03:30pm 34.0 28.1 -0.6 11 17.0 S 20 32 11 17 1013.1 1011.9 0.0
20/03:00pm 32.9 29.1 1.9 14 15.7 SW 11 26 6 14 1013.3 1012.1 0.0
20/02:30pm 33.5 28.1 2.4 14 16.0 S 20 35 11 19 1013.6 1012.4 0.0
20/02:00pm 32.9 28.3 3.8 16 15.2 S 17 32 9 17 1013.7 1012.5 0.0
20/01:36pm 33.2 29.6 4.9 17 15.1 SE 13 39 7 21 1013.9 1012.7 0.0
20/01:30pm 32.5 28.5 5.1 18 14.6 ESE 15 30 8 16 1014.1 1012.9 0.0
20/01:00pm 33.2 28.9 7.2 20 14.4 SE 19 37 10 20 1014.4 1013.2 0.0
20/12:30pm 33.0 27.8 7.1 20 14.3 ESE 24 41 13 22 1015.0 1013.8 0.0
20/12:10pm 33.5 27.6 7.5 20 14.5 SE 28 46 15 25 1015.3 1014.1 0.0
20/12:00pm 32.0 27.6 7.6 22 13.5 SE 20 33 11 18 1015.5 1014.3 0.0
20/11:30am 31.1 25.7 8.2 24 12.8 ESE 26 39 14 21 1016.1 1015.0 0.0
20/11:10am 31.5 26.4 9.1 25 12.7 ESE 26 48 14 26 1016.5 1015.4 0.0
20/11:00am 30.8 25.3 9.1 26 12.2 SE 28 41 15 22 1016.6 1015.5 0.0
20/10:30am 30.4 25.1 9.8 28 11.7 ESE 28 44 15 24 1017.4 1016.2 0.0
20/10:00am 29.4 23.5 11.0 32 10.6 ESE 33 44 18 24 1017.4 1016.2 0.0
20/09:32am 29.8 25.2 13.5 36 9.8 ESE 30 56 16 30 1017.7 1016.5 0.0
20/09:30am 29.6 25.0 13.4 37 9.7 ESE 30 44 16 24 1017.8 1016.6 0.0
20/09:00am 27.9 23.2 14.9 45 7.9 SE 33 43 18 23 1018.0 1016.8 0.0
20/08:30am 26.3 22.5 17.1 57 5.8 SE 33 46 18 25 1018.0 1016.8 0.0

Other formats

Comma delimited format used in spreadsheet applications
http://www.bom.gov.au/fwo/IDQ60801/IDQ60801.94397.axf

JavaScript Object Notation format (JSON) in row-major order
http://www.bom.gov.au/fwo/IDQ60801/IDQ60801.94397.json

Data quality

Most of these data are generated automatically and are frequently updated. Quality checks on data are not normally performed. It is possible for incorrect values to appear. Refer to information at About Latest Weather Observations and please check the disclaimer before using these data.